world map with ETSL marked

ETSL - Airport

This information may not be accurate or current and is not valid for navigation or flight planning. No warranty of fitness for any purpose is made or implied.

flag of Bavariaflag of Germany

Donate via PayPal

Additional information is available on the NEW Great Circle Mapper

Location
City:  Lechfeld, Bavaria, Germany
ICAO:ETSL

Details
Type:Airport (Flugplatz, Airfield)
Use:Military
Latitude:48°11'08"N (48.185433)
Longitude:10°51'40"E (10.861133)
Elevation:1822 ft (555 m)
Runways:1
Longest:8012 × 98 ft (2442 × 30 m)

Time
Timezone:UTC+1 (DST+4)
Local Time:

Weather
METAR:ETSL  041320Z 06008KT 9999 FEW010 M01/M03 Q1027 BLU+BLU+
TAF:ETSL  (expired)

Related Locations
Nearby:
Farthest:CHT: 11972 mi / 19267 km
Waitangi [Tuuta], CIT, NZ

Find:

   beyond  
but within

Other Information
Maps:
Sources:

  

Airport Diagram

Airport diagram for ETSL

Airport diagram (OBSOLETE) from NGA

 


Great Circle Mapper   Great Circle Mapper
Great Circle Mapper FAQ   Great Circle Mapper FAQ
  Karl's Home Page
KLS˛   KLS˛ Home
   GC on Facebook
Airlines of the World   Airlines of the World
Donate via PayPal


Copyright © 2004-2020, Karl L. Swartz. All rights reserved.
All trademarks mentioned herein belong to their respective owners.

Please see credits for attribution and copyright information.

Karl Swartz <karl@kls2.com>
  Powered by FreeBSD
Valid HTML 4.01!
Labeled with ICRA
hCard Microformat
Geo Microformat